Time;durP1;ratioP1;P1;durP2;ratioP2;P2;SDS_P1;SDS_P2;PMS_P1;PMS_P2;Temp;Humidity;BMP_temperature;BMP_pressure;BME280_temperature;BME280_humidity;BME280_pressure;Samples;Min_cycle;Max_cycle;Signal;HPM_P1;HPM_P2
2023/04/11 00:00:48;;;;;;;19.40;4.30;;;;;;;9.09;94.29;100798.50;4974312;28;20030;-83
2023/04/11 00:03:15;;;;;;;20.88;5.00;;;;;;;9.03;93.79;100804.31;4988705;28;20478;-83
2023/04/11 00:05:41;;;;;;;21.40;4.90;;;;;;;8.99;93.87;100804.63;4990513;28;20046;-85
2023/04/11 00:08:06;;;;;;;19.95;4.47;;;;;;;8.93;94.22;100790.50;4973277;28;20030;-85
2023/04/11 00:10:31;;;;;;;20.35;3.92;;;;;;;8.92;94.84;100790.63;4998710;28;20564;-83
2023/04/11 00:12:57;;;;;;;20.83;5.82;;;;;;;8.91;94.75;100794.31;4992317;28;20110;-85
2023/04/11 00:15:23;;;;;;;23.10;5.25;;;;;;;8.91;94.55;100792.47;4974836;28;20062;-85
2023/04/11 00:17:49;;;;;;;21.00;5.25;;;;;;;8.90;93.65;100798.84;4982259;28;20085;-84
2023/04/11 00:20:15;;;;;;;28.17;5.60;;;;;;;8.82;93.85;100789.50;4989501;28;20030;-84
2023/04/11 00:22:42;;;;;;;19.92;4.50;;;;;;;8.78;93.54;100790.66;4989899;28;20042;-83
2023/04/11 00:25:08;;;;;;;24.63;5.18;;;;;;;8.70;93.71;100793.88;4989069;28;20041;-84
2023/04/11 00:27:33;;;;;;;16.55;4.95;;;;;;;8.67;94.07;100803.09;4989012;28;20397;-85
2023/04/11 00:29:59;;;;;;;23.17;5.93;;;;;;;8.59;94.10;100802.72;4996224;28;20045;-84
2023/04/11 00:32:25;;;;;;;22.40;5.10;;;;;;;8.57;94.05;100792.91;4995836;28;20110;-84
2023/04/11 00:34:50;;;;;;;21.83;5.13;;;;;;;8.50;94.37;100800.59;4988800;28;20104;-84
2023/04/11 00:37:16;;;;;;;24.77;5.25;;;;;;;8.47;94.58;100816.19;4989280;28;20086;-84
2023/04/11 00:39:44;;;;;;;20.33;5.30;;;;;;;8.42;94.77;100809.22;4989611;28;20497;-85
2023/04/11 00:42:10;;;;;;;22.65;5.82;;;;;;;8.35;94.83;100802.41;4971972;28;20034;-83
2023/04/11 00:44:36;;;;;;;25.23;5.07;;;;;;;8.36;94.73;100819.56;4984681;28;20061;-84
2023/04/11 00:47:05;;;;;;;29.67;7.65;;;;;;;8.30;95.27;100812.69;4956724;28;20482;-83
2023/04/11 00:49:31;;;;;;;24.00;5.65;;;;;;;8.26;94.82;100818.41;4985015;28;20092;-84
2023/04/11 00:51:58;;;;;;;27.75;5.90;;;;;;;8.28;95.72;100811.03;4982595;28;20483;-83
2023/04/11 00:54:28;;;;;;;28.25;5.50;;;;;;;8.32;95.55;100821.56;4971679;28;20058;-84
2023/04/11 00:57:04;;;;;;;23.15;5.90;;;;;;;8.34;95.72;100807.91;4987928;28;20026;-83
2023/04/11 00:59:31;;;;;;;29.50;5.18;;;;;;;8.35;95.25;100809.69;4987794;28;20394;-84
2023/04/11 01:01:57;;;;;;;26.08;5.38;;;;;;;8.34;95.58;100808.78;4983860;28;20050;-84
2023/04/11 01:04:23;;;;;;;23.73;5.55;;;;;;;8.36;95.24;100806.00;4987784;28;20026;-84
2023/04/11 01:06:53;;;;;;;23.35;5.47;;;;;;;8.40;94.67;100813.88;4971905;28;20129;-84
2023/04/11 01:09:24;;;;;;;22.83;5.55;;;;;;;8.40;95.67;100813.00;4971298;28;20022;-83
2023/04/11 01:11:50;;;;;;;22.85;5.55;;;;;;;8.40;95.30;100813.00;5007389;28;20156;-84
2023/04/11 01:14:17;;;;;;;26.25;4.65;;;;;;;8.33;94.85;100803.47;5003500;28;20034;-84
2023/04/11 01:16:45;;;;;;;19.55;5.25;;;;;;;8.31;95.32;100797.28;4991596;28;20125;-84
2023/04/11 01:19:14;;;;;;;29.08;7.68;;;;;;;8.30;95.00;100811.78;4975301;28;20478;-84
2023/04/11 01:21:40;;;;;;;16.77;4.78;;;;;;;8.25;95.16;100803.94;4971790;28;20034;-85
2023/04/11 01:24:06;;;;;;;31.20;6.57;;;;;;;8.23;95.19;100808.59;4988731;28;20038;-84
2023/04/11 01:26:31;;;;;;;26.45;5.60;;;;;;;8.19;94.75;100804.34;5005668;28;20502;-83
2023/04/11 01:28:57;;;;;;;26.45;5.25;;;;;;;8.19;94.75;100802.50;4987736;28;20033;-84
2023/04/11 01:31:24;;;;;;;25.70;5.20;;;;;;;8.12;94.88;100805.72;5002611;28;20030;-85
2023/04/11 01:33:49;;;;;;;16.35;4.72;;;;;;;8.08;95.26;100809.59;4971171;28;20398;-84
2023/04/11 01:36:15;;;;;;;23.15;4.88;;;;;;;8.06;95.18;100809.66;4987397;28;20423;-84
2023/04/11 01:38:40;;;;;;;26.73;5.53;;;;;;;7.99;95.19;100808.31;4999978;28;20395;-84
2023/04/11 01:41:09;;;;;;;25.73;6.03;;;;;;;7.97;95.41;100812.94;4989571;28;20057;-83
2023/04/11 01:43:34;;;;;;;19.77;5.28;;;;;;;7.91;95.34;100822.31;5007533;28;20113;-84
2023/04/11 01:46:00;;;;;;;26.05;4.93;;;;;;;7.90;95.67;100831.44;4971257;28;20467;-84
2023/04/11 01:48:26;;;;;;;24.33;5.03;;;;;;;7.85;95.40;100828.13;4970945;28;20038;-83
2023/04/11 01:50:54;;;;;;;30.05;4.88;;;;;;;7.84;95.32;100839.94;4987069;28;20043;-85
2023/04/11 01:53:19;;;;;;;26.10;4.93;;;;;;;7.80;96.02;100835.66;4971262;28;20403;-85
2023/04/11 01:55:45;;;;;;;28.42;5.32;;;;;;;7.77;95.64;100830.44;4989607;28;20137;-84
2023/04/11 01:58:10;;;;;;;23.48;4.70;;;;;;;7.78;95.97;100840.28;4990356;28;20045;-83
2023/04/11 02:00:35;;;;;;;32.00;5.13;;;;;;;7.75;96.34;100837.78;4975237;28;20451;-84
2023/04/11 02:03:01;;;;;;;27.80;4.28;;;;;;;7.74;96.41;100833.34;4986530;28;20034;-84
2023/04/11 02:05:27;;;;;;;26.40;5.47;;;;;;;7.79;96.15;100843.91;4987110;28;20113;-84
2023/04/11 02:07:54;;;;;;;18.05;4.47;;;;;;;7.85;96.34;100857.06;4987112;28;20033;-84
2023/04/11 02:10:19;;;;;;;26.27;5.22;;;;;;;7.86;96.29;100845.25;4970957;28;20039;-85
2023/04/11 02:12:45;;;;;;;32.92;6.53;;;;;;;7.85;96.27;100848.94;4988404;28;20031;-83
2023/04/11 02:15:11;;;;;;;25.77;4.80;;;;;;;7.87;96.17;100852.41;4999339;28;20038;-85
2023/04/11 02:17:44;;;;;;;30.38;6.68;;;;;;;7.87;96.22;100850.56;4971242;28;20506;-84
2023/04/11 02:20:13;;;;;;;30.20;5.07;;;;;;;7.88;95.43;100865.88;4955860;28;20432;-84
2023/04/11 02:22:39;;;;;;;20.05;4.38;;;;;;;7.82;95.54;100863.50;4990456;28;20042;-82
2023/04/11 02:25:05;;;;;;;35.97;5.50;;;;;;;7.80;95.82;100868.16;4978985;28;20041;-85
2023/04/11 02:27:32;;;;;;;34.05;6.78;;;;;;;7.80;96.13;100856.47;4991027;28;20127;-85
2023/04/11 02:29:58;;;;;;;26.60;4.88;;;;;;;7.84;95.50;100861.59;4992614;28;20026;-84
2023/04/11 02:32:25;;;;;;;32.13;5.32;;;;;;;7.85;95.52;100866.06;4998546;28;20066;-83
2023/04/11 02:34:50;;;;;;;27.13;4.10;;;;;;;7.78;95.27;100859.25;4990663;28;20069;-85
2023/04/11 02:37:15;;;;;;;27.67;7.63;;;;;;;7.84;95.35;100868.88;4990519;28;20034;-84
2023/04/11 02:39:41;;;;;;;22.23;5.00;;;;;;;7.83;95.31;100873.41;4990521;28;20030;-85
2023/04/11 02:42:06;;;;;;;28.05;4.70;;;;;;;7.83;95.60;100865.28;4974771;28;20033;-84
2023/04/11 02:44:31;;;;;;;20.85;4.90;;;;;;;7.82;95.63;100873.47;5005409;28;20068;-84
2023/04/11 02:46:58;;;;;;;25.88;5.32;;;;;;;7.78;94.92;100869.22;4989150;28;20034;-84
2023/04/11 02:49:24;;;;;;;24.35;4.80;;;;;;;7.77;94.37;100871.06;4974021;28;20101;-83
2023/04/11 02:51:49;;;;;;;22.00;4.38;;;;;;;7.71;94.56;100870.56;4974080;28;20080;-84
2023/04/11 02:54:14;;;;;;;25.15;5.43;;;;;;;7.66;94.32;100869.00;4989783;28;20050;-84
2023/04/11 02:56:40;;;;;;;19.58;4.03;;;;;;;7.66;93.98;100873.53;4992491;28;20038;-84
2023/04/11 02:59:06;;;;;;;23.83;4.40;;;;;;;7.61;94.31;100872.94;5008524;28;20048;-84
2023/04/11 03:01:32;;;;;;;22.20;3.40;;;;;;;7.57;94.25;100877.66;5006143;28;20105;-84
2023/04/11 03:03:57;;;;;;;16.95;3.40;;;;;;;7.49;94.31;100865.56;4990017;28;20324;-84
2023/04/11 03:06:28;;;;;;;19.02;3.42;;;;;;;7.50;95.08;100878.13;4990307;28;20038;-83
2023/04/11 03:08:57;;;;;;;22.30;3.72;;;;;;;7.47;95.08;100872.91;4974246;28;20038;-85
2023/04/11 03:11:23;;;;;;;14.80;2.97;;;;;;;7.49;95.08;100870.97;4987883;28;20035;-84
2023/04/11 03:13:48;;;;;;;16.70;3.78;;;;;;;7.49;94.87;100879.94;4970384;28;20030;-84
2023/04/11 03:16:14;;;;;;;23.95;4.07;;;;;;;7.52;94.91;100871.66;4985728;28;20034;-84
2023/04/11 03:18:40;;;;;;;18.80;2.65;;;;;;;7.56;94.53;100878.63;4986477;28;20031;-82
2023/04/11 03:21:09;;;;;;;20.73;3.78;;;;;;;7.60;94.01;100882.00;4954659;28;20352;-83
2023/04/11 03:23:38;;;;;;;23.55;4.93;;;;;;;7.60;94.17;100882.00;4980389;28;20117;-84
2023/04/11 03:26:07;;;;;;;20.05;3.40;;;;;;;7.63;94.34;100898.97;4988473;28;20051;-83
2023/04/11 03:28:33;;;;;;;13.60;2.22;;;;;;;7.65;93.68;100901.59;4973626;28;20030;-84
2023/04/11 03:30:59;;;;;;;18.10;4.25;;;;;;;7.63;93.92;100901.66;4987647;28;20038;-83
2023/04/11 03:33:24;;;;;;;21.63;2.88;;;;;;;7.69;93.46;100905.84;4973552;28;20037;-84
2023/04/11 03:35:50;;;;;;;13.80;3.88;;;;;;;7.68;93.40;100899.53;4973550;28;20034;-83
2023/04/11 03:38:15;;;;;;;11.70;2.47;;;;;;;7.67;92.15;100900.53;4989502;28;20034;-84
2023/04/11 03:40:41;;;;;;;8.68;2.33;;;;;;;7.71;92.59;100914.75;4985472;28;20610;-83
2023/04/11 03:43:10;;;;;;;9.52;2.20;;;;;;;7.71;91.96;100914.75;4982120;28;20406;-83
2023/04/11 03:45:35;;;;;;;12.10;1.90;;;;;;;7.71;92.29;100917.47;4988305;28;20121;-84
2023/04/11 03:48:05;;;;;;;14.65;2.65;;;;;;;7.71;92.05;100917.47;4992886;28;20083;-84
2023/04/11 03:50:43;;;;;;;10.77;2.15;;;;;;;7.72;92.03;100919.19;5008649;28;20037;-83
2023/04/11 03:53:10;;;;;;;18.13;2.53;;;;;;;7.71;91.67;100922.88;4991776;28;20029;-84
2023/04/11 03:55:39;;;;;;;13.60;2.80;;;;;;;7.70;91.91;100923.84;4980593;28;20527;-83
2023/04/11 03:58:05;;;;;;;16.20;2.63;;;;;;;7.66;91.59;100909.63;4989306;28;20049;-84
2023/04/11 04:00:31;;;;;;;10.30;1.88;;;;;;;7.60;90.90;100914.50;4987860;28;20038;-83
2023/04/11 04:03:03;;;;;;;15.57;2.45;;;;;;;7.57;91.26;100917.41;4988780;28;20045;-84
2023/04/11 04:05:28;;;;;;;14.30;2.42;;;;;;;7.55;91.17;100913.91;4973239;28;20038;-83
2023/04/11 04:07:54;;;;;;;19.60;3.30;;;;;;;7.52;91.02;100922.22;4973203;28;20030;-84
2023/04/11 04:10:25;;;;;;;10.23;2.00;;;;;;;7.48;91.30;100918.81;4973123;28;20605;-83
2023/04/11 04:12:52;;;;;;;10.85;2.35;;;;;;;7.44;91.05;100914.53;4972820;28;20038;-84
2023/04/11 04:15:21;;;;;;;14.38;2.13;;;;;;;7.36;91.39;100923.09;4989389;28;20494;-84
2023/04/11 04:17:47;;;;;;;13.48;2.10;;;;;;;7.30;90.89;100920.75;4971892;28;20466;-82
2023/04/11 04:20:27;;;;;;;12.52;2.85;;;;;;;7.28;91.28;100935.34;4974880;28;20498;-83
2023/04/11 04:22:56;;;;;;;10.45;2.53;;;;;;;7.19;91.87;100928.63;4973575;28;20501;-84
2023/04/11 04:25:31;;;;;;;17.13;2.60;;;;;;;7.15;91.51;100932.47;4979527;28;20092;-82
2023/04/11 04:27:59;;;;;;;13.35;3.20;;;;;;;7.14;91.87;100933.44;4990620;28;20206;-84
2023/04/11 04:30:27;;;;;;;12.90;2.95;;;;;;;7.12;91.64;100936.19;5006570;28;20057;-82
2023/04/11 04:33:11;;;;;;;12.82;2.63;;;;;;;7.08;92.11;100944.56;5007309;28;20482;-84
2023/04/11 04:35:38;;;;;;;18.45;3.03;;;;;;;7.05;92.37;100944.78;5008718;28;20041;-83
2023/04/11 04:38:05;;;;;;;23.83;3.55;;;;;;;7.01;92.67;100949.47;4999659;28;20374;-84
2023/04/11 04:40:48;;;;;;;15.35;2.60;;;;;;;6.97;92.80;100958.72;4987750;28;20038;-83
2023/04/11 04:43:17;;;;;;;20.13;3.95;;;;;;;6.94;93.09;100960.72;4990593;28;20133;-84
2023/04/11 04:46:03;;;;;;;21.08;3.63;;;;;;;6.87;93.32;100963.75;4984839;28;20038;-84
2023/04/11 04:48:37;;;;;;;18.65;3.67;;;;;;;6.85;93.05;100971.09;4988990;28;20030;-83
2023/04/11 04:51:04;;;;;;;8.20;2.83;;;;;;;6.81;93.50;100974.94;4987799;28;20096;-84
2023/04/11 04:53:37;;;;;;;16.70;2.88;;;;;;;6.77;93.73;100975.19;4972152;28;20069;-84
2023/04/11 04:56:05;;;;;;;12.83;3.27;;;;;;;6.73;93.63;100979.00;4990808;28;20049;-83
2023/04/11 04:58:34;;;;;;;15.57;2.53;;;;;;;6.69;93.46;100980.13;5008341;28;20636;-83
2023/04/11 05:01:03;;;;;;;9.30;2.08;;;;;;;6.69;94.33;100985.53;4979712;28;20034;-83
2023/04/11 05:03:33;;;;;;;15.63;2.42;;;;;;;6.69;93.84;100997.22;5005863;28;20050;-84
2023/04/11 05:05:59;;;;;;;16.20;3.35;;;;;;;6.65;94.09;100993.78;5006621;28;20063;-83
2023/04/11 05:08:24;;;;;;;20.23;2.70;;;;;;;6.67;93.81;100998.22;5007297;28;20390;-84
2023/04/11 05:10:52;;;;;;;13.73;2.28;;;;;;;6.67;93.57;101003.63;4977655;28;20042;-83
2023/04/11 05:13:17;;;;;;;14.50;2.40;;;;;;;6.66;93.69;101002.78;4987671;28;20444;-82
2023/04/11 05:15:48;;;;;;;11.80;2.17;;;;;;;6.65;93.83;101007.31;4985698;28;20034;-83
2023/04/11 05:18:13;;;;;;;20.35;2.88;;;;;;;6.65;94.05;101006.44;4994464;28;20037;-82
2023/04/11 05:20:39;;;;;;;19.45;3.55;;;;;;;6.71;93.75;101010.63;4971892;28;20379;-84
2023/04/11 05:23:05;;;;;;;18.30;3.88;;;;;;;6.71;93.54;101016.03;4981100;28;20065;-84
2023/04/11 05:25:30;;;;;;;11.35;2.25;;;;;;;6.76;93.45;101011.25;4991715;28;20030;-84
2023/04/11 05:27:56;;;;;;;11.02;1.85;;;;;;;6.77;93.40;101013.91;4983408;28;20034;-84
2023/04/11 05:30:23;;;;;;;10.40;2.25;;;;;;;6.83;93.27;101023.50;4982850;28;20030;-84
2023/04/11 05:32:49;;;;;;;15.45;2.47;;;;;;;6.87;92.53;101014.28;4986598;28;20165;-84
2023/04/11 05:35:15;;;;;;;9.85;2.17;;;;;;;6.95;93.02;101025.56;4986189;28;20041;-84
2023/04/11 05:37:45;;;;;;;16.58;2.50;;;;;;;7.03;92.66;101025.97;4967707;28;20019;-85
2023/04/11 05:40:11;;;;;;;8.10;2.00;;;;;;;7.11;91.99;101033.69;4970477;28;20038;-83
2023/04/11 05:42:36;;;;;;;12.18;2.17;;;;;;;7.25;91.76;101035.63;4988978;28;20038;-84
2023/04/11 05:45:02;;;;;;;19.08;2.65;;;;;;;7.22;91.62;101033.09;4970275;28;20390;-83
2023/04/11 05:47:27;;;;;;;16.98;3.33;;;;;;;7.34;91.31;101049.53;4983152;28;20575;-83
2023/04/11 05:49:52;;;;;;;7.82;2.92;;;;;;;7.51;90.49;101045.88;4985954;28;20040;-84
2023/04/11 05:52:18;;;;;;;10.25;2.72;;;;;;;7.61;90.10;101048.94;4969830;28;20062;-84
2023/04/11 05:54:43;;;;;;;12.15;2.00;;;;;;;7.61;90.00;101048.94;4970062;28;20046;-83
2023/04/11 05:57:09;;;;;;;18.00;4.20;;;;;;;7.75;90.28;101059.84;4986516;28;20061;-84
2023/04/11 05:59:34;;;;;;;12.35;2.05;;;;;;;7.95;89.99;101064.13;4986144;28;20022;-83
2023/04/11 06:02:00;;;;;;;16.45;2.08;;;;;;;7.97;89.19;101054.03;4970070;28;20092;-83
2023/04/11 06:04:26;;;;;;;11.93;2.10;;;;;;;7.94;89.26;101073.22;4987941;28;20390;-84
2023/04/11 06:06:51;;;;;;;15.18;2.28;;;;;;;7.87;89.24;101069.97;4969717;28;20062;-83
2023/04/11 06:09:17;;;;;;;13.73;1.92;;;;;;;7.85;89.21;101074.59;4967428;28;20410;-84
2023/04/11 06:11:43;;;;;;;14.05;2.05;;;;;;;7.89;89.00;101078.88;4986763;28;20042;-83
2023/04/11 06:14:08;;;;;;;13.23;2.50;;;;;;;7.84;88.85;101077.41;4985408;28;20110;-82
2023/04/11 06:16:35;;;;;;;10.90;2.30;;;;;;;7.83;88.78;101084.66;4971796;28;20038;-84
2023/04/11 06:19:02;;;;;;;12.48;1.88;;;;;;;7.83;88.89;101072.94;4991577;28;20453;-83
2023/04/11 06:21:27;;;;;;;11.38;2.10;;;;;;;7.87;88.87;101078.09;4986439;28;20304;-83
2023/04/11 06:23:53;;;;;;;12.13;2.45;;;;;;;7.91;88.15;101082.38;4990059;28;20026;-82
2023/04/11 06:26:18;;;;;;;11.43;2.13;;;;;;;7.95;88.08;101083.06;4985645;28;20436;-82
2023/04/11 06:28:43;;;;;;;11.85;2.53;;;;;;;8.16;87.72;101087.25;4969551;28;20408;-84
2023/04/11 06:31:09;;;;;;;14.55;2.55;;;;;;;9.18;84.45;101065.72;4969039;28;20034;-83
2023/04/11 06:33:35;;;;;;;13.73;2.45;;;;;;;10.53;79.14;101087.63;4990279;28;20041;-83
2023/04/11 06:36:00;;;;;;;12.77;3.05;;;;;;;11.43;76.24;101077.69;4989667;28;20124;-83
2023/04/11 06:38:26;;;;;;;14.13;3.15;;;;;;;11.87;72.49;101088.09;5006303;28;20057;-83
2023/04/11 06:40:53;;;;;;;19.15;2.10;;;;;;;11.64;72.17;101083.41;5004677;28;20034;-84
2023/04/11 06:43:18;;;;;;;8.35;2.30;;;;;;;10.97;73.30;101089.13;5005918;28;20080;-83
2023/04/11 06:45:45;;;;;;;9.70;2.25;;;;;;;10.57;75.41;101096.47;5003667;28;20451;-84
2023/04/11 06:48:11;;;;;;;10.23;2.50;;;;;;;10.51;76.36;101089.59;4973483;28;20465;-83
2023/04/11 06:50:40;;;;;;;15.68;2.28;;;;;;;10.90;74.24;101095.97;4970678;28;20038;-83
2023/04/11 06:53:06;;;;;;;11.77;2.20;;;;;;;11.13;73.33;101089.78;4987149;28;20026;-84
2023/04/11 06:55:31;;;;;;;10.20;1.75;;;;;;;11.29;72.65;101108.66;4996212;28;20426;-83
2023/04/11 06:57:56;;;;;;;14.00;3.35;;;;;;;11.40;72.70;101100.56;5006017;28;20403;-83
2023/04/11 07:00:22;;;;;;;11.85;2.20;;;;;;;11.31;72.67;101114.84;4989698;28;20045;-84
2023/04/11 07:02:47;;;;;;;11.57;2.00;;;;;;;11.18;72.22;101101.22;4992372;28;20049;-83
2023/04/11 07:05:13;;;;;;;11.55;2.22;;;;;;;11.20;72.53;101112.03;5009930;28;20080;-84
2023/04/11 07:07:39;;;;;;;12.52;1.95;;;;;;;11.27;72.09;101123.34;5009756;28;20164;-84
2023/04/11 07:10:05;;;;;;;11.85;2.15;;;;;;;11.20;72.38;101121.06;5010577;28;20036;-82
2023/04/11 07:12:30;;;;;;;8.93;1.80;;;;;;;11.14;72.10;101118.75;4992899;28;20034;-84
2023/04/11 07:14:56;;;;;;;10.48;1.73;;;;;;;11.15;72.53;101128.69;5002028;28;20038;-82
2023/04/11 07:17:21;;;;;;;12.07;2.30;;;;;;;11.12;72.40;101131.63;4979392;28;20486;-83
2023/04/11 07:19:46;;;;;;;8.98;1.67;;;;;;;11.08;72.65;101132.81;4989671;28;20540;-83
2023/04/11 07:22:11;;;;;;;18.50;2.10;;;;;;;11.27;73.96;101134.22;4973809;28;20402;-83
2023/04/11 07:24:38;;;;;;;9.75;2.08;;;;;;;11.31;71.39;101131.19;4989781;28;20361;-83
2023/04/11 07:27:03;;;;;;;10.35;2.08;;;;;;;11.04;73.49;101139.44;4990183;28;20042;-82
2023/04/11 07:29:29;;;;;;;10.55;1.88;;;;;;;10.89;72.49;101141.38;4991760;28;20065;-83
2023/04/11 07:31:55;;;;;;;18.83;2.60;;;;;;;10.87;74.17;101140.63;4986778;28;20045;-82
2023/04/11 07:34:20;;;;;;;15.98;2.63;;;;;;;11.21;73.16;101141.88;5005752;28;20038;-83
2023/04/11 07:36:46;;;;;;;9.43;2.20;;;;;;;11.26;72.78;101137.94;4973216;28;20044;-83
2023/04/11 07:39:14;;;;;;;6.93;2.13;;;;;;;11.62;73.04;101148.94;4989312;28;20106;-83
2023/04/11 07:41:39;;;;;;;9.52;2.13;;;;;;;11.64;72.16;101151.56;4987611;28;20505;-82
2023/04/11 07:44:06;;;;;;;10.68;2.55;;;;;;;11.81;70.33;101143.03;4988555;28;20058;-83
2023/04/11 07:46:32;;;;;;;11.77;2.25;;;;;;;11.57;70.04;101148.41;4988262;28;20069;-83
2023/04/11 07:48:58;;;;;;;10.68;2.45;;;;;;;11.57;70.69;101145.69;4989073;28;20449;-83
2023/04/11 07:51:23;;;;;;;11.48;1.88;;;;;;;11.64;70.73;101137.94;4973096;28;20056;-82
2023/04/11 07:53:48;;;;;;;9.77;2.30;;;;;;;11.61;69.66;101130.84;4990376;28;20062;-82
2023/04/11 07:56:14;;;;;;;9.50;2.10;;;;;;;11.66;69.51;101153.19;4988262;28;20046;-83
2023/04/11 07:58:39;;;;;;;10.88;2.22;;;;;;;11.57;69.85;101147.53;4972691;28;20022;-82
2023/04/11 08:01:17;;;;;;;17.05;2.25;;;;;;;11.69;69.52;101158.41;5005380;28;20029;-81
2023/04/11 08:03:44;;;;;;;10.93;2.60;;;;;;;11.67;68.29;101152.22;4990078;28;20087;-81
2023/04/11 08:06:10;;;;;;;10.90;2.42;;;;;;;11.59;68.51;101154.59;4990161;28;20049;-82
2023/04/11 08:08:35;;;;;;;16.15;2.35;;;;;;;11.34;67.72;101166.38;4990752;28;20026;-83
2023/04/11 08:11:00;;;;;;;15.45;2.13;;;;;;;11.30;70.62;101167.59;4989158;28;20070;-82
2023/04/11 08:13:26;;;;;;;10.38;3.20;;;;;;;11.43;70.12;101171.19;5005175;28;20029;-83
2023/04/11 08:15:51;;;;;;;9.85;2.08;;;;;;;11.29;67.61;101179.47;4987085;28;20060;-82
2023/04/11 08:18:20;;;;;;;11.25;2.67;;;;;;;11.30;68.54;101175.75;4991306;28;20035;-82
2023/04/11 08:20:47;;;;;;;10.13;2.28;;;;;;;11.39;69.45;101185.13;4979671;28;20506;-82
2023/04/11 08:23:12;;;;;;;11.98;2.47;;;;;;;11.45;68.37;101188.28;4972500;28;20056;-82
2023/04/11 08:25:39;;;;;;;9.35;1.85;;;;;;;11.42;67.95;101172.19;5002868;28;20088;-81
2023/04/11 08:28:05;;;;;;;13.90;2.70;;;;;;;11.40;66.07;101198.63;5008387;28;20091;-82
2023/04/11 08:30:30;;;;;;;9.77;2.15;;;;;;;11.27;67.20;101202.31;4989510;28;20109;-81
2023/04/11 08:32:56;;;;;;;7.30;1.85;;;;;;;11.17;68.11;101192.06;4975890;28;20070;-82
2023/04/11 08:35:21;;;;;;;10.38;2.55;;;;;;;11.36;68.35;101199.81;4970587;28;20570;-82
2023/04/11 08:37:48;;;;;;;9.32;1.70;;;;;;;11.42;67.88;101210.31;4969247;28;20050;-82
2023/04/11 08:40:14;;;;;;;8.95;1.70;;;;;;;11.59;66.70;101211.84;4977337;28;20351;-82
2023/04/11 08:42:40;;;;;;;9.70;2.45;;;;;;;11.58;64.74;101210.09;4970110;28;20431;-83
2023/04/11 08:45:07;;;;;;;11.25;1.98;;;;;;;11.65;67.56;101227.75;4999702;28;20521;-82
2023/04/11 08:47:34;;;;;;;4.53;1.42;;;;;;;11.81;64.42;101204.88;4990169;28;20053;-82
2023/04/11 08:49:59;;;;;;;11.13;2.40;;;;;;;12.05;64.38;101207.69;5007378;28;20036;-82
2023/04/11 08:52:25;;;;;;;8.93;1.63;;;;;;;12.06;63.10;101209.44;4979440;28;20046;-82
2023/04/11 08:54:53;;;;;;;7.03;1.73;;;;;;;11.94;64.32;101206.63;4971291;28;20050;-82
2023/04/11 08:57:33;;;;;;;9.07;2.05;;;;;;;11.92;65.41;101214.03;4971364;28;20033;-82
2023/04/11 09:00:23;;;;;;;7.05;2.22;;;;;;;12.05;65.32;101208.56;4988268;28;20185;-82
2023/04/11 09:03:02;;;;;;;7.60;2.17;;;;;;;12.34;62.85;101211.88;4998311;28;20065;-82
2023/04/11 09:05:34;;;;;;;12.05;1.90;;;;;;;12.63;63.22;101206.97;5007305;28;20395;-82
2023/04/11 09:08:05;;;;;;;8.00;1.27;;;;;;;12.58;62.99;101203.72;4991060;28;20173;-82
2023/04/11 09:10:31;;;;;;;10.15;1.95;;;;;;;12.54;61.57;101210.38;4997185;28;20045;-82
2023/04/11 09:12:57;;;;;;;6.78;2.17;;;;;;;12.63;62.91;101206.97;4971306;28;20054;-82
2023/04/11 09:15:24;;;;;;;7.43;1.75;;;;;;;12.71;62.26;101203.66;4996001;28;20041;-82
2023/04/11 09:17:49;;;;;;;10.88;1.75;;;;;;;12.47;59.63;101209.13;4978249;28;20113;-82
2023/04/11 09:20:19;;;;;;;8.07;1.45;;;;;;;12.39;61.72;101220.59;4987793;28;20473;-82
2023/04/11 09:22:48;;;;;;;7.85;1.50;;;;;;;12.34;60.66;101202.81;4986721;28;20030;-82
2023/04/11 09:25:13;;;;;;;9.35;1.77;;;;;;;12.29;60.07;101219.53;4986045;28;20133;-81
2023/04/11 09:27:38;;;;;;;8.30;2.55;;;;;;;12.34;61.69;101221.91;4987255;28;20050;-82
2023/04/11 09:30:04;;;;;;;11.88;1.90;;;;;;;12.49;61.27;101215.31;4986870;28;20038;-82
2023/04/11 09:32:33;;;;;;;6.63;1.50;;;;;;;12.82;61.21;101208.31;4986687;28;20034;-81
2023/04/11 09:35:22;;;;;;;3.30;1.35;;;;;;;12.70;58.84;101219.19;4970952;28;20096;-82
2023/04/11 09:38:02;;;;;;;9.23;1.83;;;;;;;12.39;58.87;101220.59;4971128;28;20486;-81
2023/04/11 09:40:32;;;;;;;7.45;1.48;;;;;;;12.30;59.82;101223.13;4995816;28;20343;-82
2023/04/11 09:42:59;;;;;;;6.65;1.58;;;;;;;12.16;57.92;101225.00;4980232;28;20194;-82
2023/04/11 09:45:26;;;;;;;6.45;1.88;;;;;;;12.28;59.01;101225.09;4976845;28;20049;-81
2023/04/11 09:47:57;;;;;;;5.97;1.00;;;;;;;12.56;58.41;101218.47;4970432;28;20049;-82
2023/04/11 09:50:24;;;;;;;8.57;1.60;;;;;;;12.67;57.61;101224.84;4986998;28;20200;-81
2023/04/11 09:52:51;;;;;;;7.13;1.20;;;;;;;12.97;59.69;101223.53;4987140;28;20036;-81
2023/04/11 09:55:24;;;;;;;12.70;2.33;;;;;;;13.25;55.81;101231.38;4970524;28;20054;-81
2023/04/11 09:57:51;;;;;;;7.47;2.13;;;;;;;13.37;55.96;101223.19;4986929;28;20071;-82
2023/04/11 10:00:23;;;;;;;8.68;1.60;;;;;;;13.71;56.29;101222.31;4991654;28;20038;-81
2023/04/11 10:02:51;;;;;;;9.43;1.95;;;;;;;14.24;58.09;101216.22;4986350;28;20117;-81
2023/04/11 10:05:18;;;;;;;11.13;1.83;;;;;;;14.55;55.23;101222.81;4988314;28;20053;-81
2023/04/11 10:07:46;;;;;;;7.90;1.90;;;;;;;14.50;52.75;101236.88;4973283;28;20513;-82
2023/04/11 10:10:21;;;;;;;5.88;1.60;;;;;;;14.35;53.17;101227.13;4970008;28;20497;-81
2023/04/11 10:12:47;;;;;;;9.98;1.80;;;;;;;14.20;54.21;101220.19;4968874;28;20042;-82
2023/04/11 10:15:14;;;;;;;6.18;1.80;;;;;;;14.02;54.28;101223.44;4984250;28;20115;-82
2023/04/11 10:17:39;;;;;;;7.38;1.50;;;;;;;13.89;53.54;101227.28;4993081;28;20049;-81
2023/04/11 10:20:43;;;;;;;10.00;1.80;;;;;;;13.71;54.71;101226.91;4967849;28;20034;-82
2023/04/11 10:23:10;;;;;;;9.40;2.00;;;;;;;13.65;55.85;101228.22;4983977;28;20181;-81
2023/04/11 10:25:49;;;;;;;7.85;1.48;;;;;;;13.95;57.23;101226.81;4993570;28;20096;-82
2023/04/11 10:28:34;;;;;;;10.43;1.67;;;;;;;14.24;53.96;101229.91;4986970;28;20041;-82
2023/04/11 10:31:02;;;;;;;9.15;1.48;;;;;;;14.25;53.04;101223.41;4999669;28;20046;-82
2023/04/11 10:33:29;;;;;;;7.93;2.05;;;;;;;14.54;54.49;101235.59;5005164;28;20397;-82
2023/04/11 10:36:09;;;;;;;8.52;1.60;;;;;;;14.86;54.01;101231.19;5009460;28;20458;-81
2023/04/11 10:38:47;;;;;;;8.32;1.73;;;;;;;14.76;50.05;101234.69;5010931;28;20034;-82
2023/04/11 10:41:32;;;;;;;6.70;1.40;;;;;;;14.45;52.42;101227.25;4996316;28;20073;-83
2023/04/11 10:44:19;;;;;;;8.88;2.22;;;;;;;14.17;52.31;101237.72;4973900;28;20151;-81
2023/04/11 10:46:52;;;;;;;8.68;1.52;;;;;;;13.90;52.78;101223.56;4974689;28;20038;-81
2023/04/11 10:49:35;;;;;;;5.15;1.50;;;;;;;14.11;53.57;101226.41;4996166;28;20038;-81
2023/04/11 10:52:19;;;;;;;4.55;1.45;;;;;;;14.10;52.89;101225.56;4973972;28;20486;-82
2023/04/11 10:54:47;;;;;;;7.80;1.80;;;;;;;13.96;51.45;101229.41;4989829;28;20075;-81
2023/04/11 10:57:13;;;;;;;7.88;1.50;;;;;;;13.96;50.54;101237.59;4973991;28;20395;-82
2023/04/11 10:59:39;;;;;;;4.05;1.42;;;;;;;13.98;51.08;101241.06;4976422;28;20508;-81
2023/04/11 11:02:04;;;;;;;7.95;1.83;;;;;;;14.13;52.02;101235.34;5004603;28;20038;-82
2023/04/11 11:04:31;;;;;;;10.27;2.10;;;;;;;14.53;50.89;101238.47;4973671;28;20444;-82
2023/04/11 11:07:00;;;;;;;6.10;1.30;;;;;;;14.88;48.65;101234.69;4990027;28;20442;-81
2023/04/11 11:09:27;;;;;;;5.00;1.40;;;;;;;14.95;47.24;101219.44;5008713;28;20049;-81
2023/04/11 11:12:13;;;;;;;7.10;1.45;;;;;;;15.02;49.34;101216.06;4992837;28;20037;-82
2023/04/11 11:14:41;;;;;;;6.88;1.27;;;;;;;15.09;47.90;101230.09;5004730;28;20110;-80
2023/04/11 11:17:07;;;;;;;5.75;1.58;;;;;;;15.26;48.86;101226.78;4989516;28;20022;-81
2023/04/11 11:19:34;;;;;;;5.70;1.52;;;;;;;15.42;44.60;101237.28;4974048;28;20034;-82
2023/04/11 11:22:02;;;;;;;9.20;1.48;;;;;;;15.46;44.84;101236.03;4989867;28;20023;-81
2023/04/11 11:24:28;;;;;;;10.05;1.60;;;;;;;15.55;43.80;101223.38;4989679;28;20276;-82
2023/04/11 11:26:55;;;;;;;5.78;1.40;;;;;;;15.59;44.47;101224.84;4989425;28;20034;-82